Time;durP1;ratioP1;P1;durP2;ratioP2;P2;SDS_P1;SDS_P2;PMS_P1;PMS_P2;Temp;Humidity;BMP_temperature;BMP_pressure;BME280_temperature;BME280_humidity;BME280_pressure;Samples;Min_cycle;Max_cycle;Signal;HPM_P1;HPM_P2
2022/05/26 00:01:50;;;;;;;7.13;4.68;;;13.50;99.90;;;;;;4917870;28;20240;-68
2022/05/26 00:04:39;;;;;;;6.07;5.05;;;13.50;99.90;;;;;;4961872;28;20255;-67
2022/05/26 00:07:28;;;;;;;5.47;4.55;;;13.40;99.90;;;;;;4942163;28;20232;-67
2022/05/26 00:10:19;;;;;;;5.90;4.70;;;13.30;99.90;;;;;;4941439;28;20328;-68
2022/05/26 00:13:08;;;;;;;4.80;4.30;;;13.30;99.90;;;;;;4931807;28;20786;-68
2022/05/26 00:15:58;;;;;;;7.13;4.70;;;13.30;99.90;;;;;;4940991;28;20769;-67
2022/05/26 00:18:48;;;;;;;5.47;4.30;;;13.30;99.90;;;;;;4955131;28;20236;-68
2022/05/26 00:21:37;;;;;;;5.28;4.32;;;13.20;99.90;;;;;;4949285;28;20221;-70
2022/05/26 00:24:26;;;;;;;5.97;5.30;;;13.20;99.90;;;;;;4940659;28;20236;-69
2022/05/26 00:27:15;;;;;;;7.35;4.63;;;13.20;99.90;;;;;;4939897;28;20244;-69
2022/05/26 00:30:04;;;;;;;5.10;4.60;;;13.10;99.90;;;;;;4938222;28;20588;-68
2022/05/26 00:32:54;;;;;;;5.15;4.65;;;13.00;99.90;;;;;;4967525;28;20225;-68
2022/05/26 00:35:43;;;;;;;5.82;5.07;;;13.00;99.90;;;;;;4918636;28;20345;-68
2022/05/26 00:38:32;;;;;;;6.30;4.70;;;13.00;99.90;;;;;;4918138;28;20301;-68
2022/05/26 00:41:21;;;;;;;6.07;5.07;;;12.90;99.90;;;;;;4945533;28;20232;-68
2022/05/26 00:44:10;;;;;;;5.78;5.13;;;12.90;99.90;;;;;;4941776;28;20233;-68
2022/05/26 00:47:03;;;;;;;5.72;5.07;;;12.70;99.90;;;;;;4940481;28;20229;-68
2022/05/26 00:49:57;;;;;;;5.60;5.10;;;12.70;99.90;;;;;;4942776;28;20220;-67
2022/05/26 00:52:50;;;;;;;5.53;5.03;;;12.80;99.90;;;;;;4955303;28;20269;-70
2022/05/26 00:55:48;;;;;;;6.20;4.85;;;12.70;99.90;;;;;;4941398;28;20216;-70
2022/05/26 00:58:44;;;;;;;7.35;5.13;;;12.80;99.90;;;;;;4940376;28;20232;-70
2022/05/26 01:01:33;;;;;;;6.88;5.30;;;12.70;99.90;;;;;;4935735;28;20235;-68
2022/05/26 01:04:28;;;;;;;6.15;5.47;;;12.60;99.90;;;;;;4932892;28;20225;-69
2022/05/26 01:07:21;;;;;;;6.60;5.53;;;12.70;99.90;;;;;;4942299;28;20251;-69
2022/05/26 01:10:12;;;;;;;5.97;5.40;;;12.60;99.90;;;;;;4941716;28;20228;-69
2022/05/26 01:13:01;;;;;;;8.35;6.13;;;12.60;99.90;;;;;;4939371;28;20275;-69
2022/05/26 01:16:01;;;;;;;6.50;5.90;;;12.50;99.90;;;;;;4939778;28;20225;-68
2022/05/26 01:19:05;;;;;;;7.30;6.15;;;12.50;99.90;;;;;;4951839;28;20239;-72
2022/05/26 01:22:00;;;;;;;6.53;5.90;;;12.60;99.90;;;;;;4933630;28;20224;-69
2022/05/26 01:25:20;;;;;;;7.10;5.80;;;12.60;99.90;;;;;;4938886;28;20213;-68
2022/05/26 01:28:23;;;;;;;7.63;6.72;;;12.40;99.90;;;;;;4934014;28;20394;-69
2022/05/26 01:31:33;;;;;;;7.03;6.32;;;12.40;99.90;;;;;;4930500;28;20251;-68
2022/05/26 01:34:31;;;;;;;11.20;5.75;;;12.40;99.90;;;;;;4939494;28;20239;-68
2022/05/26 01:37:30;;;;;;;7.65;6.05;;;12.40;99.90;;;;;;4957454;28;20746;-70
2022/05/26 01:40:29;;;;;;;7.55;6.28;;;12.40;99.90;;;;;;4936652;28;20228;-68
2022/05/26 01:43:29;;;;;;;7.65;6.40;;;12.40;99.90;;;;;;4936429;28;20660;-68
2022/05/26 01:46:25;;;;;;;9.80;6.20;;;12.40;99.90;;;;;;4935267;28;20239;-69
2022/05/26 01:49:21;;;;;;;6.85;6.15;;;12.30;99.90;;;;;;4933061;28;20335;-68
2022/05/26 01:52:15;;;;;;;6.38;5.78;;;12.30;99.90;;;;;;4939146;28;20228;-68
2022/05/26 01:55:10;;;;;;;6.60;5.97;;;12.20;99.90;;;;;;4951501;28;20355;-68
2022/05/26 01:58:05;;;;;;;6.55;5.80;;;12.30;99.90;;;;;;4941150;28;20224;-69
2022/05/26 02:00:56;;;;;;;6.55;5.47;;;12.30;99.90;;;;;;4954492;28;20227;-68
2022/05/26 02:03:49;;;;;;;7.70;6.07;;;12.30;99.90;;;;;;4939909;28;20576;-68
2022/05/26 02:06:44;;;;;;;8.60;5.93;;;12.30;99.90;;;;;;4940043;28;20342;-70
2022/05/26 02:09:41;;;;;;;7.18;5.70;;;12.30;99.90;;;;;;4937570;28;20216;-70
2022/05/26 02:12:33;;;;;;;6.82;5.47;;;12.30;99.90;;;;;;4934326;28;20226;-70
2022/05/26 02:15:27;;;;;;;6.55;5.18;;;12.30;99.90;;;;;;4935382;28;20279;-70
2022/05/26 02:18:21;;;;;;;5.60;5.10;;;12.20;99.90;;;;;;4939703;28;20270;-70
2022/05/26 02:21:17;;;;;;;5.95;5.28;;;12.20;99.90;;;;;;4937638;28;20229;-69
2022/05/26 02:24:10;;;;;;;5.57;4.60;;;12.20;99.90;;;;;;4938467;28;20232;-68
2022/05/26 02:26:58;;;;;;;6.40;5.80;;;12.20;99.90;;;;;;4939937;28;20233;-69
2022/05/26 02:29:55;;;;;;;6.72;5.25;;;12.30;99.90;;;;;;4942525;28;20398;-68
2022/05/26 02:32:47;;;;;;;6.03;5.10;;;12.20;99.90;;;;;;4974822;28;20367;-69
2022/05/26 02:35:40;;;;;;;5.82;5.22;;;12.10;99.90;;;;;;4921075;28;20225;-69
2022/05/26 02:38:30;;;;;;;6.63;5.25;;;12.10;99.90;;;;;;4920038;28;20240;-68
2022/05/26 02:41:19;;;;;;;5.25;4.75;;;12.10;99.90;;;;;;4945706;28;20231;-68
2022/05/26 02:44:09;;;;;;;7.05;5.07;;;12.10;99.90;;;;;;4917720;28;20230;-69
2022/05/26 02:47:13;;;;;;;7.05;4.90;;;12.10;99.90;;;;;;4942639;28;20236;-69
2022/05/26 02:50:24;;;;;;;5.43;4.85;;;12.10;99.90;;;;;;4930189;28;20318;-69
2022/05/26 02:53:19;;;;;;;6.68;4.82;;;12.10;99.90;;;;;;4927222;28;20233;-70
2022/05/26 02:56:17;;;;;;;6.05;4.25;;;12.10;99.90;;;;;;4943130;28;20698;-69
2022/05/26 02:59:13;;;;;;;5.40;4.38;;;12.10;99.90;;;;;;4953571;28;20232;-69
2022/05/26 03:02:09;;;;;;;5.63;4.05;;;12.10;99.90;;;;;;4940423;28;20235;-69
2022/05/26 03:05:06;;;;;;;5.25;4.22;;;12.10;99.90;;;;;;4939922;28;20358;-70
2022/05/26 03:08:01;;;;;;;4.90;4.30;;;12.10;99.90;;;;;;4941716;28;20766;-68
2022/05/26 03:10:52;;;;;;;5.30;4.80;;;12.10;99.90;;;;;;4944103;28;20265;-70
2022/05/26 03:13:42;;;;;;;5.13;4.45;;;12.20;99.90;;;;;;4939000;28;20925;-69
2022/05/26 03:16:31;;;;;;;5.68;5.15;;;12.10;99.90;;;;;;4939531;28;20780;-69
2022/05/26 03:19:20;;;;;;;4.68;4.28;;;12.30;99.90;;;;;;4926662;28;20216;-68
2022/05/26 03:22:09;;;;;;;5.80;4.75;;;12.30;99.90;;;;;;4938586;28;20228;-69
2022/05/26 03:25:01;;;;;;;5.47;4.10;;;12.40;99.90;;;;;;4934922;28;20228;-69
2022/05/26 03:27:49;;;;;;;5.32;4.47;;;12.40;99.90;;;;;;4955459;28;20229;-72
2022/05/26 03:30:40;;;;;;;5.10;4.60;;;12.40;99.90;;;;;;4943724;28;20315;-69
2022/05/26 03:40:45;;;;;;;5.28;4.78;;;12.50;99.90;;;;;;4957688;28;20875;-68
2022/05/26 03:42:59;;;;;;;9.52;6.78;;;12.60;99.90;;;;;;4931616;28;20470;-69
2022/05/26 03:45:49;;;;;;;8.88;7.43;;;12.60;99.90;;;;;;4941984;28;20232;-68
2022/05/26 03:48:40;;;;;;;10.52;7.15;;;12.60;99.90;;;;;;4950347;28;20232;-71
2022/05/26 03:51:32;;;;;;;8.77;7.82;;;12.70;99.90;;;;;;4951692;28;20236;-67
2022/05/26 03:54:25;;;;;;;9.38;8.27;;;12.70;99.90;;;;;;4937356;28;20232;-70
2022/05/26 03:57:13;;;;;;;10.80;9.30;;;12.70;99.90;;;;;;4934402;28;20220;-67
2022/05/26 04:00:03;;;;;;;11.40;10.07;;;12.90;99.90;;;;;;4920026;28;20233;-68
2022/05/26 04:03:00;;;;;;;11.50;10.40;;;13.00;99.90;;;;;;4938261;28;20760;-69
2022/05/26 04:05:48;;;;;;;12.23;10.05;;;13.00;99.90;;;;;;4941805;28;21140;-67
2022/05/26 04:08:37;;;;;;;11.45;10.40;;;13.20;99.90;;;;;;4953802;28;20347;-67
2022/05/26 04:11:26;;;;;;;12.40;11.20;;;13.20;99.90;;;;;;4947642;28;20243;-67
2022/05/26 04:14:15;;;;;;;12.27;10.73;;;13.30;99.90;;;;;;4947510;28;20237;-67
2022/05/26 04:17:05;;;;;;;12.65;11.00;;;13.40;99.90;;;;;;4945893;28;20311;-69
2022/05/26 04:19:59;;;;;;;12.55;11.35;;;13.50;99.90;;;;;;4943013;28;20229;-68
2022/05/26 04:22:47;;;;;;;13.05;11.45;;;13.50;99.90;;;;;;4954298;28;20232;-69
2022/05/26 04:25:36;;;;;;;14.10;11.18;;;13.60;99.90;;;;;;4940226;28;20224;-70
2022/05/26 04:28:25;;;;;;;13.43;11.18;;;13.70;99.90;;;;;;4943464;28;20719;-70
2022/05/26 04:31:13;;;;;;;12.68;11.15;;;13.80;99.90;;;;;;4944649;28;20225;-70
2022/05/26 04:34:02;;;;;;;14.38;11.25;;;13.80;99.90;;;;;;4943046;28;20793;-69
2022/05/26 04:36:52;;;;;;;12.18;10.88;;;14.00;99.90;;;;;;4936914;28;20242;-69
2022/05/26 04:39:41;;;;;;;14.63;10.55;;;13.90;99.90;;;;;;4939168;28;20948;-70
2022/05/26 04:42:30;;;;;;;12.85;11.52;;;14.00;99.90;;;;;;4959615;28;20240;-69
2022/05/26 04:45:19;;;;;;;12.40;11.20;;;14.20;99.90;;;;;;4941444;28;20418;-69
2022/05/26 04:48:07;;;;;;;12.05;10.30;;;14.20;99.90;;;;;;4948213;28;20228;-68
2022/05/26 04:50:56;;;;;;;11.40;10.20;;;14.30;99.90;;;;;;4949811;28;20252;-69
2022/05/26 04:53:46;;;;;;;14.38;11.00;;;14.40;99.90;;;;;;4942957;28;20321;-68
2022/05/26 04:56:35;;;;;;;13.13;10.63;;;14.40;99.90;;;;;;4954362;28;20221;-68
2022/05/26 04:59:23;;;;;;;12.73;11.45;;;14.60;99.90;;;;;;4940843;28;20297;-68
2022/05/26 05:02:13;;;;;;;14.00;12.23;;;14.70;99.90;;;;;;4942377;28;20240;-70
2022/05/26 05:05:02;;;;;;;13.27;11.95;;;14.80;99.90;;;;;;4942838;28;20348;-68
2022/05/26 05:07:51;;;;;;;16.55;12.82;;;14.70;99.90;;;;;;4941735;28;20220;-69
2022/05/26 05:10:41;;;;;;;14.00;12.25;;;14.80;99.90;;;;;;4948721;28;20235;-70
2022/05/26 05:13:31;;;;;;;15.68;12.45;;;15.00;99.90;;;;;;4950309;28;20239;-69
2022/05/26 05:16:23;;;;;;;16.25;12.30;;;15.10;99.90;;;;;;4939033;28;20231;-69
2022/05/26 05:19:14;;;;;;;13.52;12.13;;;15.20;99.90;;;;;;4940977;28;20307;-68
2022/05/26 05:22:07;;;;;;;14.05;12.40;;;15.20;99.90;;;;;;4945385;28;20232;-67
2022/05/26 05:25:05;;;;;;;15.60;12.00;;;15.60;99.90;;;;;;4942218;28;20769;-69
2022/05/26 05:27:59;;;;;;;15.05;11.90;;;15.90;99.90;;;;;;4942292;28;20228;-70
2022/05/26 05:30:52;;;;;;;13.48;11.18;;;16.10;99.90;;;;;;4948293;28;20224;-70
2022/05/26 05:33:47;;;;;;;13.95;10.57;;;16.00;99.90;;;;;;4956112;28;20220;-69
2022/05/26 05:36:38;;;;;;;14.50;11.75;;;16.00;99.90;;;;;;4941217;28;20220;-69
2022/05/26 05:39:27;;;;;;;13.75;11.65;;;16.00;99.90;;;;;;4947403;28;20220;-67
2022/05/26 05:42:16;;;;;;;13.40;11.57;;;16.00;99.90;;;;;;4938593;28;20225;-72
2022/05/26 05:45:07;;;;;;;15.65;12.30;;;16.00;99.90;;;;;;4937428;28;20228;-71
2022/05/26 05:47:56;;;;;;;13.40;11.15;;;16.10;99.90;;;;;;4940495;28;20232;-67
2022/05/26 05:50:45;;;;;;;13.77;11.95;;;16.20;99.90;;;;;;4951952;28;20312;-68
2022/05/26 05:53:33;;;;;;;11.93;10.68;;;16.30;99.90;;;;;;4948463;28;20228;-69
2022/05/26 05:56:22;;;;;;;15.50;10.90;;;16.40;99.90;;;;;;4944484;28;20238;-70
2022/05/26 05:59:10;;;;;;;14.77;10.77;;;16.50;99.90;;;;;;4939257;28;20291;-71
2022/05/26 06:02:00;;;;;;;12.48;9.93;;;16.50;99.90;;;;;;4945412;28;20229;-70
2022/05/26 06:05:10;;;;;;;15.07;11.38;;;16.70;99.90;;;;;;4938771;28;20224;-71
2022/05/26 06:07:59;;;;;;;12.93;10.38;;;17.00;99.90;;;;;;4950949;28;20225;-70
2022/05/26 06:10:48;;;;;;;14.35;10.32;;;17.10;99.90;;;;;;4939543;28;20663;-69
2022/05/26 06:13:37;;;;;;;9.82;8.25;;;17.30;99.90;;;;;;4943125;28;20233;-74
2022/05/26 06:16:25;;;;;;;11.05;8.57;;;17.60;99.90;;;;;;4940607;28;20233;-75
2022/05/26 06:19:15;;;;;;;15.65;8.73;;;17.80;99.90;;;;;;4954375;28;20235;-70
2022/05/26 06:22:09;;;;;;;12.43;7.63;;;17.80;99.90;;;;;;4940805;28;20228;-69
2022/05/26 06:24:58;;;;;;;12.63;8.30;;;17.70;99.90;;;;;;4928270;28;20750;-69
2022/05/26 06:30:56;;;;;;;16.25;7.57;;;17.50;99.90;;;;;;4957188;28;20219;-70
2022/05/26 06:39:58;;;;;;;10.57;6.45;;;17.60;99.90;;;;;;4943877;28;20239;-71
2022/05/26 06:42:48;;;;;;;6.85;6.15;;;17.50;99.90;;;;;;4943916;28;21031;-67
2022/05/26 06:45:39;;;;;;;9.35;6.38;;;17.70;99.90;;;;;;4941324;28;20680;-72
2022/05/26 06:48:28;;;;;;;8.95;6.75;;;17.80;99.90;;;;;;4945931;28;20240;-71
2022/05/26 06:51:17;;;;;;;7.90;6.35;;;18.00;99.90;;;;;;4951909;28;20723;-70
2022/05/26 06:54:10;;;;;;;8.88;5.35;;;18.00;99.90;;;;;;4954656;28;20396;-73
2022/05/26 06:56:59;;;;;;;8.50;6.28;;;18.20;99.90;;;;;;4945763;28;20232;-74
2022/05/26 06:59:48;;;;;;;8.25;5.80;;;18.40;99.90;;;;;;4949498;28;20221;-72
2022/05/26 07:02:38;;;;;;;8.75;5.32;;;18.50;99.90;;;;;;4940500;28;20228;-74
2022/05/26 07:05:26;;;;;;;8.15;5.00;;;18.60;99.90;;;;;;4947288;28;20337;-71
2022/05/26 07:08:19;;;;;;;6.15;4.75;;;18.80;99.90;;;;;;4947912;28;20725;-71
2022/05/26 07:11:09;;;;;;;7.65;4.90;;;18.90;99.90;;;;;;4942384;28;20311;-71
2022/05/26 07:13:57;;;;;;;6.03;4.53;;;19.00;99.90;;;;;;4943086;28;20293;-72
2022/05/26 07:16:47;;;;;;;7.40;4.70;;;19.30;99.90;;;;;;4943312;28;20238;-70
2022/05/26 07:19:37;;;;;;;8.25;4.68;;;19.50;99.90;;;;;;4940377;28;20307;-71
2022/05/26 07:22:26;;;;;;;6.07;4.45;;;19.80;99.90;;;;;;4942612;28;20309;-73
2022/05/26 07:25:15;;;;;;;5.82;4.43;;;19.80;99.90;;;;;;4921874;28;20221;-71
2022/05/26 07:28:06;;;;;;;5.95;4.40;;;20.10;99.90;;;;;;4936438;28;20236;-71
2022/05/26 07:30:54;;;;;;;8.07;4.57;;;20.70;99.90;;;;;;4954634;28;20353;-71
2022/05/26 07:33:43;;;;;;;5.40;4.13;;;21.10;99.90;;;;;;4938336;28;20256;-72
2022/05/26 07:42:47;;;;;;;6.55;4.20;;;23.70;99.90;;;;;;4949025;28;20242;-71
2022/05/26 07:45:38;;;;;;;6.93;4.00;;;24.80;99.40;;;;;;4946817;28;20695;-71
2022/05/26 07:48:26;;;;;;;4.97;4.05;;;25.60;93.80;;;;;;4960746;28;20316;-71
2022/05/26 07:51:16;;;;;;;9.18;3.95;;;26.40;91.40;;;;;;4939137;28;21157;-71
2022/05/26 07:54:08;;;;;;;7.63;3.15;;;26.10;88.80;;;;;;4943525;28;20742;-71
2022/05/26 07:56:59;;;;;;;4.88;3.25;;;26.30;85.20;;;;;;4940007;28;20224;-72
2022/05/26 07:59:48;;;;;;;5.80;2.90;;;26.60;86.30;;;;;;4943291;28;20240;-71
2022/05/26 08:02:38;;;;;;;3.53;2.85;;;27.60;79.60;;;;;;4926789;28;20429;-72
2022/05/26 08:05:28;;;;;;;4.53;2.80;;;28.50;75.90;;;;;;4952471;28;20879;-71
2022/05/26 08:08:17;;;;;;;7.78;3.50;;;29.00;73.20;;;;;;4939431;28;20228;-70
2022/05/26 08:11:05;;;;;;;3.50;2.30;;;29.50;69.70;;;;;;4954028;28;21122;-69
2022/05/26 08:13:54;;;;;;;3.97;2.70;;;29.30;68.80;;;;;;4940762;28;20235;-69
2022/05/26 08:16:43;;;;;;;4.03;2.20;;;29.10;70.70;;;;;;4945189;28;20228;-71
2022/05/26 08:19:33;;;;;;;3.03;2.42;;;30.40;65.50;;;;;;4939639;28;20296;-71
2022/05/26 08:22:22;;;;;;;2.63;2.00;;;30.60;64.50;;;;;;4939550;28;20224;-71
2022/05/26 08:25:11;;;;;;;3.55;2.20;;;30.80;63.40;;;;;;4944435;28;20721;-71
2022/05/26 08:27:59;;;;;;;4.70;2.38;;;30.90;64.10;;;;;;4955528;28;20244;-72
2022/05/26 08:30:48;;;;;;;5.03;2.15;;;32.00;57.10;;;;;;4939785;28;20526;-70
2022/05/26 08:33:37;;;;;;;2.40;2.17;;;31.10;58.60;;;;;;4954697;28;20232;-72
2022/05/26 08:36:31;;;;;;;2.13;1.85;;;32.10;57.80;;;;;;4937678;28;20231;-70
2022/05/26 08:39:20;;;;;;;3.47;1.95;;;32.20;57.00;;;;;;4938200;28;20303;-71
2022/05/26 08:42:22;;;;;;;3.38;1.95;;;32.50;55.80;;;;;;4941208;28;20410;-70
2022/05/26 08:45:13;;;;;;;2.60;2.10;;;33.40;55.50;;;;;;4942699;28;20292;-70
2022/05/26 08:48:03;;;;;;;3.15;2.05;;;33.60;55.30;;;;;;4954052;28;20247;-70
2022/05/26 08:50:52;;;;;;;3.22;2.30;;;33.80;55.00;;;;;;4947612;28;20228;-73
2022/05/26 08:53:42;;;;;;;8.20;2.40;;;33.20;53.60;;;;;;4939004;28;20705;-71
2022/05/26 08:56:31;;;;;;;4.43;2.00;;;33.00;54.00;;;;;;4948356;28;20220;-71
2022/05/26 08:59:26;;;;;;;4.13;1.92;;;32.50;53.30;;;;;;4956283;28;20234;-71
2022/05/26 09:02:26;;;;;;;3.80;2.35;;;33.90;51.90;;;;;;4939900;28;20216;-73
2022/05/26 09:05:18;;;;;;;3.55;2.00;;;30.10;52.50;;;;;;4943049;28;20270;-72
2022/05/26 09:14:39;;;;;;;5.07;2.50;;;30.30;57.60;;;;;;4931617;28;20290;-73
2022/05/26 09:17:30;;;;;;;4.10;2.30;;;30.60;56.40;;;;;;4944729;28;20243;-71
2022/05/26 09:20:30;;;;;;;2.15;1.90;;;30.10;58.30;;;;;;4942773;28;20223;-73
2022/05/26 09:23:24;;;;;;;4.35;1.90;;;30.50;55.10;;;;;;4972059;28;20234;-71
2022/05/26 09:26:17;;;;;;;2.22;1.52;;;29.40;58.60;;;;;;4968219;28;20564;-72
2022/05/26 09:29:10;;;;;;;4.68;1.83;;;29.50;56.40;;;;;;4958535;28;20228;-71
2022/05/26 09:32:00;;;;;;;3.42;1.92;;;30.30;55.50;;;;;;4941675;28;20221;-71
2022/05/26 09:35:14;;;;;;;5.57;1.60;;;30.40;55.20;;;;;;4946975;28;20738;-71
2022/05/26 09:38:05;;;;;;;3.40;1.88;;;32.30;55.40;;;;;;4939571;28;20228;-71
2022/05/26 09:41:07;;;;;;;1.73;1.63;;;34.00;52.50;;;;;;4940900;28;20720;-71
2022/05/26 09:44:00;;;;;;;2.40;1.90;;;33.00;50.00;;;;;;4945189;28;20358;-72
2022/05/26 09:46:53;;;;;;;3.72;1.70;;;33.70;50.00;;;;;;4943568;28;20295;-72
2022/05/26 09:49:42;;;;;;;4.82;1.63;;;33.50;47.70;;;;;;4942560;28;20294;-72
2022/05/26 09:52:44;;;;;;;2.42;1.40;;;31.10;51.50;;;;;;4943857;28;20220;-71
2022/05/26 09:55:38;;;;;;;3.20;1.70;;;27.30;55.00;;;;;;4944536;28;20219;-71
2022/05/26 09:58:37;;;;;;;3.63;1.70;;;26.50;56.90;;;;;;4954814;28;20322;-73
2022/05/26 10:01:43;;;;;;;1.63;1.50;;;27.60;56.90;;;;;;4945613;28;20767;-70
2022/05/26 10:04:49;;;;;;;3.47;1.40;;;28.40;56.20;;;;;;4940933;28;20296;-72
2022/05/26 10:07:51;;;;;;;4.85;2.85;;;28.20;55.30;;;;;;4942470;28;20223;-72
2022/05/26 10:10:45;;;;;;;6.15;2.03;;;27.70;56.00;;;;;;4947920;28;20215;-72
2022/05/26 10:13:52;;;;;;;3.03;1.60;;;27.30;58.00;;;;;;4953203;28;20710;-73
2022/05/26 10:16:49;;;;;;;2.22;1.50;;;27.50;57.90;;;;;;4939457;28;20223;-71
2022/05/26 10:20:02;;;;;;;3.20;1.50;;;28.00;57.40;;;;;;4943928;28;20231;-72
2022/05/26 10:23:09;;;;;;;2.80;1.50;;;26.30;57.70;;;;;;4945158;28;20504;-72
2022/05/26 10:26:05;;;;;;;2.97;1.60;;;25.00;60.00;;;;;;4946503;28;20224;-74
2022/05/26 10:29:23;;;;;;;3.08;1.73;;;25.60;59.00;;;;;;4942865;28;20231;-72
2022/05/26 10:32:23;;;;;;;2.75;1.50;;;26.10;58.50;;;;;;4951899;28;20235;-72
2022/05/26 10:35:23;;;;;;;3.65;1.60;;;25.30;59.80;;;;;;4942571;28;20721;-72
2022/05/26 10:38:30;;;;;;;2.60;1.42;;;24.60;62.90;;;;;;4942053;28;20373;-71
2022/05/26 10:41:31;;;;;;;2.70;1.70;;;24.00;64.20;;;;;;4943966;28;20235;-71
2022/05/26 10:44:26;;;;;;;2.22;1.60;;;24.20;64.90;;;;;;4944273;28;20228;-72
2022/05/26 10:47:22;;;;;;;2.00;1.40;;;24.00;63.80;;;;;;4952401;28;20215;-72
2022/05/26 10:50:21;;;;;;;4.70;2.05;;;26.30;60.90;;;;;;4956560;28;20232;-73
2022/05/26 10:53:20;;;;;;;4.03;1.85;;;25.30;61.30;;;;;;4943760;28;20228;-70
2022/05/26 10:56:19;;;;;;;2.75;1.90;;;24.00;64.20;;;;;;4940934;28;20311;-69
2022/05/26 10:59:14;;;;;;;4.13;1.70;;;23.30;66.30;;;;;;4940965;28;20262;-71
2022/05/26 11:02:10;;;;;;;6.07;1.88;;;23.60;66.40;;;;;;4939679;28;20315;-70
2022/05/26 11:05:08;;;;;;;4.55;2.42;;;24.60;66.80;;;;;;4942150;28;20231;-70
2022/05/26 11:08:17;;;;;;;2.22;1.40;;;23.80;65.10;;;;;;4940073;28;20224;-71
2022/05/26 11:11:14;;;;;;;3.85;1.88;;;23.90;66.10;;;;;;4942945;28;20254;-70
2022/05/26 11:14:09;;;;;;;7.43;1.80;;;23.20;69.20;;;;;;4946911;28;20239;-70
2022/05/26 11:20:12;;;;;;;3.55;1.83;;;23.30;69.80;;;;;;4942718;28;20225;-72
2022/05/26 11:23:04;;;;;;;2.58;1.67;;;24.50;67.20;;;;;;4958370;28;20228;-73
2022/05/26 11:26:00;;;;;;;4.32;1.80;;;24.60;65.40;;;;;;4954178;28;20216;-71
2022/05/26 11:28:53;;;;;;;4.57;1.90;;;24.90;67.10;;;;;;4936871;28;20515;-71
2022/05/26 11:38:16;;;;;;;2.28;1.58;;;23.80;68.00;;;;;;4983678;28;20228;-71
2022/05/26 11:41:08;;;;;;;7.15;1.85;;;23.30;70.30;;;;;;4949864;28;20237;-73
2022/05/26 11:44:05;;;;;;;3.08;1.70;;;23.00;71.50;;;;;;4951716;28;20236;-71
2022/05/26 11:47:12;;;;;;;4.40;1.80;;;25.00;68.20;;;;;;4941200;28;20251;-72
2022/05/26 11:50:21;;;;;;;5.70;1.83;;;24.90;67.80;;;;;;4953820;28;20228;-72
2022/05/26 11:53:36;;;;;;;3.15;1.80;;;24.70;68.10;;;;;;4955411;28;20677;-73
2022/05/26 11:56:48;;;;;;;4.68;1.98;;;24.10;69.70;;;;;;4951667;28;20233;-71
2022/05/26 11:59:47;;;;;;;3.10;1.98;;;24.90;72.30;;;;;;4941680;28;20228;-73
2022/05/26 12:02:36;;;;;;;2.10;1.60;;;27.90;65.30;;;;;;4950034;28;20688;-73
2022/05/26 12:05:45;;;;;;;2.83;1.70;;;28.20;61.20;;;;;;4940801;28;20216;-69
2022/05/26 12:08:43;;;;;;;3.20;1.67;;;28.50;62.00;;;;;;4952115;28;20220;-72
2022/05/26 12:11:53;;;;;;;5.45;1.90;;;29.90;59.40;;;;;;4942877;28;20219;-73
2022/05/26 12:14:58;;;;;;;5.50;2.10;;;29.40;58.20;;;;;;4924588;28;20299;-73
2022/05/26 12:17:49;;;;;;;5.80;1.50;;;28.70;58.90;;;;;;4938386;28;20235;-72
2022/05/26 12:20:42;;;;;;;4.55;1.60;;;28.10;59.10;;;;;;4974972;28;20216;-73
2022/05/26 12:23:31;;;;;;;3.88;1.80;;;28.00;58.30;;;;;;4918593;28;20267;-72
2022/05/26 12:26:50;;;;;;;3.42;1.52;;;27.90;58.90;;;;;;4948571;28;20223;-72
2022/05/26 12:30:01;;;;;;;2.67;1.48;;;29.30;57.60;;;;;;4937999;28;20235;-73
2022/05/26 12:32:53;;;;;;;4.32;1.52;;;29.80;55.50;;;;;;4940027;28;20323;-72
2022/05/26 12:35:49;;;;;;;3.22;1.50;;;28.40;56.30;;;;;;4964411;28;20224;-73
2022/05/26 12:38:50;;;;;;;3.20;1.50;;;27.70;57.30;;;;;;4941848;28;20403;-72
2022/05/26 12:41:48;;;;;;;3.63;1.40;;;26.30;59.30;;;;;;4942826;28;20219;-72
2022/05/26 12:45:20;;;;;;;1.98;1.30;;;26.30;59.40;;;;;;4955468;28;20281;-73
2022/05/26 12:48:24;;;;;;;7.25;1.50;;;25.80;60.80;;;;;;4943014;28;20806;-71
2022/05/26 12:51:14;;;;;;;3.97;1.60;;;26.00;60.40;;;;;;4947267;28;20424;-71
2022/05/26 12:54:07;;;;;;;3.42;1.50;;;25.00;63.10;;;;;;4941940;28;20228;-70
2022/05/26 12:56:59;;;;;;;5.55;1.75;;;24.90;63.90;;;;;;4942709;28;20324;-71
2022/05/26 12:59:47;;;;;;;4.85;1.80;;;24.40;65.60;;;;;;4952001;28;20306;-73
2022/05/26 13:02:38;;;;;;;3.63;1.70;;;24.40;65.70;;;;;;4940701;28;20554;-73
2022/05/26 13:05:29;;;;;;;3.72;1.80;;;23.90;67.80;;;;;;4940432;28;20244;-70
2022/05/26 13:08:21;;;;;;;7.55;1.90;;;23.90;67.30;;;;;;4956853;28;20232;-72
2022/05/26 13:11:14;;;;;;;2.10;1.90;;;23.40;69.30;;;;;;4950170;28;20214;-71
2022/05/26 13:14:08;;;;;;;3.25;1.95;;;22.90;69.70;;;;;;4934951;28;20225;-72
2022/05/26 13:17:00;;;;;;;6.95;1.80;;;22.80;70.80;;;;;;4929820;28;20245;-71
2022/05/26 13:19:52;;;;;;;6.25;1.45;;;22.90;71.50;;;;;;4921539;28;20983;-72
2022/05/26 13:22:40;;;;;;;3.30;1.67;;;22.40;71.40;;;;;;4971489;28;20224;-70
2022/05/26 13:25:31;;;;;;;6.30;1.67;;;22.80;72.60;;;;;;4947571;28;20224;-72
2022/05/26 13:28:28;;;;;;;2.53;1.50;;;23.00;72.30;;;;;;4938937;28;20231;-72
2022/05/26 13:34:53;;;;;;;6.20;1.65;;;22.80;71.70;;;;;;4953073;28;20319;-72
2022/05/26 13:37:47;;;;;;;2.90;1.35;;;22.70;72.90;;;;;;4939603;28;20729;-72
2022/05/26 13:40:36;;;;;;;2.50;1.48;;;22.90;71.30;;;;;;4941987;28;20228;-70
2022/05/26 13:43:25;;;;;;;3.75;1.50;;;22.90;71.40;;;;;;4940062;28;20313;-71
2022/05/26 13:46:22;;;;;;;4.15;2.10;;;22.80;70.20;;;;;;4943082;28;20228;-72
2022/05/26 13:49:33;;;;;;;4.95;1.90;;;22.80;70.90;;;;;;4941440;28;20229;-71
2022/05/26 13:52:28;;;;;;;6.15;1.80;;;22.40;72.00;;;;;;4942523;28;20228;-71
2022/05/26 13:55:20;;;;;;;4.18;2.00;;;22.60;72.10;;;;;;4941815;28;20605;-72
2022/05/26 13:58:09;;;;;;;3.35;1.50;;;22.60;72.30;;;;;;4947676;28;20229;-78
2022/05/26 14:01:00;;;;;;;2.15;1.42;;;22.50;72.10;;;;;;4946568;28;20270;-72
2022/05/26 14:03:55;;;;;;;4.50;1.50;;;22.20;72.30;;;;;;4942413;28;20714;-71
2022/05/26 14:06:43;;;;;;;4.80;1.42;;;22.30;73.30;;;;;;4952940;28;20236;-71
2022/05/26 14:09:35;;;;;;;5.15;1.60;;;22.40;73.40;;;;;;4938440;28;20305;-71
2022/05/26 14:12:27;;;;;;;5.35;1.40;;;22.40;72.00;;;;;;4943838;28;20315;-71
2022/05/26 14:15:47;;;;;;;5.43;2.05;;;22.30;72.70;;;;;;4943722;28;20263;-69
2022/05/26 14:18:39;;;;;;;4.57;1.80;;;22.00;74.00;;;;;;4946275;28;20244;-70
2022/05/26 14:21:30;;;;;;;2.92;1.73;;;21.70;74.80;;;;;;4943441;28;20255;-70
2022/05/26 14:24:29;;;;;;;9.20;2.22;;;21.50;82.40;;;;;;4943757;28;20229;-70
2022/05/26 14:27:22;;;;;;;4.75;2.40;;;20.60;99.90;;;;;;4955640;28;20244;-72
2022/05/26 14:30:30;;;;;;;9.18;2.78;;;20.10;99.90;;;;;;4939883;28;20349;-71
2022/05/26 14:33:23;;;;;;;6.35;2.83;;;19.50;99.90;;;;;;4954351;28;20228;-71
2022/05/26 14:36:11;;;;;;;6.30;2.65;;;19.30;99.90;;;;;;4950004;28;20711;-71
2022/05/26 14:39:03;;;;;;;4.97;3.05;;;19.30;99.90;;;;;;4936230;28;20243;-73
2022/05/26 14:41:53;;;;;;;4.75;2.67;;;19.20;99.90;;;;;;4983158;28;20232;-72
2022/05/26 14:44:44;;;;;;;4.80;2.70;;;19.40;99.90;;;;;;4921072;28;20370;-73
2022/05/26 14:47:33;;;;;;;5.70;2.78;;;19.50;99.90;;;;;;4943973;28;20300;-73
2022/05/26 14:50:22;;;;;;;5.10;2.83;;;19.20;99.90;;;;;;4939687;28;20303;-73
2022/05/26 14:53:13;;;;;;;2.67;2.22;;;19.20;99.90;;;;;;4957921;28;20228;-72
2022/05/26 14:56:02;;;;;;;4.22;2.28;;;19.40;99.90;;;;;;4948098;28;20235;-73
2022/05/26 14:58:50;;;;;;;4.18;2.17;;;19.40;99.90;;;;;;4942006;28;20635;-74
2022/05/26 15:01:41;;;;;;;4.43;2.22;;;19.60;99.90;;;;;;4939665;28;20670;-73
2022/05/26 15:04:29;;;;;;;5.78;2.55;;;19.60;99.90;;;;;;4968855;28;20224;-72
2022/05/26 15:07:19;;;;;;;3.88;2.42;;;19.80;99.90;;;;;;4951452;28;21904;-71
2022/05/26 15:10:09;;;;;;;3.10;2.33;;;19.90;99.90;;;;;;4940029;28;20232;-71
2022/05/26 15:12:58;;;;;;;2.97;2.20;;;20.10;99.90;;;;;;4937724;28;20710;-74
2022/05/26 15:15:47;;;;;;;3.95;2.42;;;20.40;99.90;;;;;;4941483;28;20255;-72
2022/05/26 15:18:37;;;;;;;4.75;2.25;;;20.30;99.90;;;;;;4957667;28;20951;-73
2022/05/26 15:21:26;;;;;;;1.98;1.70;;;20.40;99.90;;;;;;4938322;28;20307;-71
2022/05/26 17:23:18;;;;;;;3.50;2.10;;;19.10;99.90;;;;;;5045469;28;20224;-69
2022/05/26 17:26:13;;;;;;;4.97;2.28;;;19.00;99.90;;;;;;5034380;28;20216;-69
2022/05/26 17:29:02;;;;;;;4.60;2.45;;;19.00;99.90;;;;;;5063945;28;20219;-70
2022/05/26 17:31:52;;;;;;;7.05;2.30;;;19.00;99.90;;;;;;5076347;28;20219;-69
2022/05/26 17:34:41;;;;;;;6.57;2.60;;;19.10;99.90;;;;;;5076761;28;20238;-69
2022/05/26 17:37:32;;;;;;;5.13;2.70;;;18.80;99.90;;;;;;5074311;28;20238;-70
2022/05/26 17:40:21;;;;;;;2.88;2.67;;;18.70;99.90;;;;;;5072498;28;20243;-71